createdAt,value
2017-05-27T00:00:58.431Z,14.8
2017-05-27T00:02:05.913Z,14.8
2017-05-27T00:03:13.932Z,14.8
2017-05-27T00:04:21.411Z,14.8
2017-05-27T00:05:28.578Z,14.7
2017-05-27T00:06:36.059Z,14.7
2017-05-27T00:07:43.544Z,14.7
2017-05-27T00:08:51.335Z,14.7
2017-05-27T00:09:58.818Z,14.7
2017-05-27T00:11:06.301Z,14.7
2017-05-27T00:12:13.786Z,14.7
2017-05-27T00:13:21.268Z,14.7
2017-05-27T00:14:29.053Z,14.7
2017-05-27T00:15:36.539Z,14.7
2017-05-27T00:16:44.020Z,14.7
2017-05-27T00:17:51.500Z,14.7
2017-05-27T00:18:58.986Z,14.7
2017-05-27T00:20:06.765Z,14.7
2017-05-27T00:21:14.248Z,14.7
2017-05-27T00:22:21.735Z,14.7
2017-05-27T00:23:28.888Z,14.7
2017-05-27T00:24:36.039Z,14.6
2017-05-27T00:25:43.818Z,14.6
2017-05-27T00:26:50.974Z,14.6
2017-05-27T00:27:58.455Z,14.6
2017-05-27T00:29:05.609Z,14.6
2017-05-27T00:30:13.088Z,14.6
2017-05-27T00:31:20.870Z,14.6
2017-05-27T00:32:28.353Z,14.5
2017-05-27T00:33:35.842Z,14.5
2017-05-27T00:34:42.989Z,14.5
2017-05-27T00:35:50.471Z,14.5
2017-05-27T00:36:57.921Z,14.4
2017-05-27T00:38:05.398Z,14.4
2017-05-27T00:39:12.875Z,14.4
2017-05-27T00:40:20.365Z,14.4
2017-05-27T00:41:27.857Z,14.4
2017-05-27T00:42:35.315Z,14.4
2017-05-27T00:43:42.808Z,14.4
2017-05-27T00:44:49.964Z,14.4
2017-05-27T00:45:57.449Z,14.3
2017-05-27T00:47:04.933Z,14.3
2017-05-27T00:48:12.721Z,14.3
2017-05-27T00:49:20.198Z,14.3
2017-05-27T00:50:27.688Z,14.3
2017-05-27T00:51:35.165Z,14.2
2017-05-27T00:52:42.647Z,14.2
2017-05-27T00:53:50.104Z,14.2
2017-05-27T00:54:57.592Z,14.2
2017-05-27T00:56:05.069Z,14.2
2017-05-27T00:57:12.226Z,14.1
2017-05-27T00:58:19.699Z,14.1
2017-05-27T00:59:27.146Z,14.1
2017-05-27T01:00:34.627Z,14.1
2017-05-27T01:01:42.108Z,14.1
2017-05-27T01:02:49.258Z,14
2017-05-27T01:03:56.800Z,14
2017-05-27T01:05:04.581Z,14
2017-05-27T01:06:12.061Z,14
2017-05-27T01:07:19.540Z,14
2017-05-27T01:08:27.021Z,14
2017-05-27T01:09:34.498Z,14
2017-05-27T01:10:42.230Z,14
2017-05-27T01:11:49.385Z,14
2017-05-27T01:12:56.870Z,14
2017-05-27T01:14:04.350Z,13.9
2017-05-27T01:15:11.832Z,13.9
2017-05-27T01:16:19.614Z,13.9
2017-05-27T01:17:27.498Z,13.9
2017-05-27T01:18:34.984Z,13.9
2017-05-27T01:19:42.468Z,13.8
2017-05-27T01:20:49.945Z,13.8
2017-05-27T01:21:57.732Z,13.8
2017-05-27T01:23:05.214Z,13.8
2017-05-27T01:24:12.363Z,13.8
2017-05-27T01:25:19.846Z,13.7
2017-05-27T01:26:27.330Z,13.7
2017-05-27T01:27:35.110Z,13.7
2017-05-27T01:28:42.595Z,13.7
2017-05-27T01:29:50.077Z,13.7
2017-05-27T01:30:57.559Z,13.7
2017-05-27T01:32:04.715Z,13.6
2017-05-27T01:33:12.500Z,13.6
2017-05-27T01:34:19.981Z,13.6
2017-05-27T01:35:27.157Z,13.6
2017-05-27T01:36:34.312Z,13.6
2017-05-27T01:37:41.795Z,13.6
2017-05-27T01:38:49.587Z,13.5
2017-05-27T01:39:56.740Z,13.5
2017-05-27T01:41:04.212Z,13.5
2017-05-27T01:42:11.699Z,13.4
2017-05-27T01:43:19.183Z,13.4
2017-05-27T01:44:26.959Z,13.3
2017-05-27T01:45:34.444Z,13.3
2017-05-27T01:46:41.925Z,13.3
2017-05-27T01:47:49.068Z,13.2
2017-05-27T01:48:56.551Z,13.2
2017-05-27T01:50:04.331Z,13.2
2017-05-27T01:51:11.476Z,13.2
2017-05-27T01:52:18.956Z,13.2
2017-05-27T01:53:26.434Z,13.1
2017-05-27T01:54:33.915Z,13.1
2017-05-27T01:55:41.697Z,13.1
2017-05-27T01:56:49.181Z,13.1
2017-05-27T01:57:56.664Z,13.1
2017-05-27T01:59:04.148Z,13.1
2017-05-27T02:00:11.630Z,13.1
2017-05-27T02:01:19.460Z,13.2
2017-05-27T02:02:26.942Z,13.2
2017-05-27T02:03:34.097Z,13.2
2017-05-27T02:04:41.573Z,13.2
2017-05-27T02:05:49.287Z,13.3
2017-05-27T02:06:57.120Z,13.4
2017-05-27T02:08:04.595Z,13.4
2017-05-27T02:09:12.081Z,13.4
2017-05-27T02:10:19.566Z,13.4
2017-05-27T02:11:27.045Z,13.4
2017-05-27T02:12:34.822Z,13.4
2017-05-27T02:13:42.308Z,13.4
2017-05-27T02:14:49.789Z,13.4
2017-05-27T02:15:57.273Z,13.4
2017-05-27T02:17:04.424Z,13.3
2017-05-27T02:18:12.259Z,13.4
2017-05-27T02:19:19.739Z,13.4
2017-05-27T02:20:27.224Z,13.4
2017-05-27T02:21:34.706Z,13.4
2017-05-27T02:22:42.188Z,13.4
2017-05-27T02:23:49.639Z,13.3
2017-05-27T02:24:57.116Z,13.3
2017-05-27T02:26:04.608Z,13.3
2017-05-27T02:27:12.082Z,13.3
2017-05-27T02:28:19.245Z,13.3
2017-05-27T02:29:27.025Z,13.3
2017-05-27T02:30:34.505Z,13.3
2017-05-27T02:31:41.984Z,13.4
2017-05-27T02:32:49.469Z,13.4
2017-05-27T02:33:56.628Z,13.4
2017-05-27T02:35:04.454Z,13.5
2017-05-27T02:36:11.600Z,13.6
2017-05-27T02:37:18.756Z,13.7
2017-05-27T02:38:26.243Z,13.6
2017-05-27T02:39:33.386Z,13.6
2017-05-27T02:40:41.165Z,13.6
2017-05-27T02:41:48.653Z,13.5
2017-05-27T02:42:56.140Z,13.5
2017-05-27T02:44:03.623Z,13.4
2017-05-27T02:45:11.111Z,13.4
2017-05-27T02:46:18.567Z,13.4
2017-05-27T02:47:26.043Z,13.3
2017-05-27T02:48:33.526Z,13.3
2017-05-27T02:49:41.004Z,13.3
2017-05-27T02:50:48.483Z,13.3
2017-05-27T02:51:56.265Z,13.3
2017-05-27T02:53:03.743Z,13.2
2017-05-27T02:54:11.223Z,13.2
2017-05-27T02:55:18.709Z,13.2
2017-05-27T02:56:26.186Z,13.2
2017-05-27T02:57:33.969Z,13.2
2017-05-27T02:58:41.119Z,13.1
2017-05-27T02:59:48.600Z,13.1
2017-05-27T03:00:56.083Z,13.1
2017-05-27T03:02:03.568Z,13.1
2017-05-27T03:03:11.350Z,13
2017-05-27T03:04:18.832Z,13
2017-05-27T03:05:26.312Z,13
2017-05-27T03:06:33.794Z,13
2017-05-27T03:07:41.679Z,12.9
2017-05-27T03:08:49.460Z,12.9
2017-05-27T03:09:56.941Z,12.9
2017-05-27T03:11:04.418Z,12.9
2017-05-27T03:12:11.239Z,12.9
2017-05-27T03:13:18.716Z,12.9
2017-05-27T03:14:26.209Z,12.9
2017-05-27T03:15:33.687Z,12.9
2017-05-27T03:16:41.189Z,12.9
2017-05-27T03:17:48.667Z,12.9
2017-05-27T03:18:56.146Z,12.9
2017-05-27T03:20:03.644Z,12.8
2017-05-27T03:21:11.123Z,12.8
2017-05-27T03:22:18.602Z,12.8
2017-05-27T03:23:25.429Z,12.8
2017-05-27T03:24:32.589Z,12.8
2017-05-27T03:25:39.434Z,12.7
2017-05-27T03:26:46.914Z,12.8
2017-05-27T03:27:54.396Z,12.7
2017-05-27T03:29:01.552Z,12.7
2017-05-27T03:30:08.371Z,12.7
2017-05-27T03:31:15.544Z,12.7
2017-05-27T03:32:23.024Z,12.6
2017-05-27T03:33:30.507Z,12.6
2017-05-27T03:34:37.986Z,12.7
2017-05-27T03:35:45.465Z,12.7
2017-05-27T03:36:53.248Z,12.6
2017-05-27T03:38:00.783Z,12.6
2017-05-27T03:39:08.260Z,12.6
2017-05-27T03:40:15.747Z,12.6
2017-05-27T03:41:23.225Z,12.5
2017-05-27T03:42:31.006Z,12.6
2017-05-27T03:43:38.484Z,12.6
2017-05-27T03:44:46.026Z,12.6
2017-05-27T03:45:53.177Z,12.5
2017-05-27T03:47:00.655Z,12.5
2017-05-27T03:48:08.430Z,12.5
2017-05-27T03:49:15.911Z,12.5
2017-05-27T03:50:23.392Z,12.5
2017-05-27T03:51:30.876Z,12.5
2017-05-27T03:52:38.359Z,12.5
2017-05-27T03:53:46.149Z,12.5
2017-05-27T03:54:53.626Z,12.5
2017-05-27T03:56:01.103Z,12.5
2017-05-27T03:57:08.255Z,12.5
2017-05-27T03:58:15.736Z,12.5
2017-05-27T03:59:23.188Z,12.5
2017-05-27T04:00:30.675Z,12.5
2017-05-27T04:01:38.154Z,12.5
2017-05-27T04:02:45.634Z,12.5
2017-05-27T04:03:53.122Z,12.5
2017-05-27T04:05:00.897Z,12.5
2017-05-27T04:06:08.377Z,12.4
2017-05-27T04:07:15.857Z,12.5
2017-05-27T04:08:23.345Z,12.5
2017-05-27T04:09:30.493Z,12.5
2017-05-27T04:10:38.271Z,12.5
2017-05-27T04:11:45.749Z,12.5
2017-05-27T04:12:53.229Z,12.5
2017-05-27T04:14:00.709Z,12.5
2017-05-27T04:15:08.202Z,12.5
2017-05-27T04:16:15.977Z,12.5
2017-05-27T04:17:23.454Z,12.4
2017-05-27T04:18:30.932Z,12.5
2017-05-27T04:19:38.414Z,12.5
2017-05-27T04:20:45.892Z,12.4
2017-05-27T04:21:53.670Z,12.4
2017-05-27T04:23:01.152Z,12.3
2017-05-27T04:24:08.632Z,12.4
2017-05-27T04:25:15.788Z,12.4
2017-05-27T04:26:23.262Z,12.4
2017-05-27T04:27:31.045Z,12.4
2017-05-27T04:28:38.524Z,12.5
2017-05-27T04:29:46.007Z,12.5
2017-05-27T04:30:53.494Z,12.5
2017-05-27T04:32:00.968Z,12.6
2017-05-27T04:33:08.745Z,12.6
2017-05-27T04:34:16.227Z,12.6
2017-05-27T04:35:23.709Z,12.7
2017-05-27T04:36:30.888Z,12.7
2017-05-27T04:37:38.371Z,12.7
2017-05-27T04:38:45.818Z,12.6
2017-05-27T04:39:53.304Z,12.7
2017-05-27T04:41:00.782Z,12.7
2017-05-27T04:42:08.267Z,12.6
2017-05-27T04:43:15.750Z,12.6
2017-05-27T04:44:23.528Z,12.6
2017-05-27T04:45:30.688Z,12.6
2017-05-27T04:46:38.171Z,12.7
2017-05-27T04:47:45.649Z,12.7
2017-05-27T04:48:53.124Z,12.7
2017-05-27T04:50:00.906Z,12.8
2017-05-27T04:51:08.388Z,12.8
2017-05-27T04:52:15.874Z,12.9
2017-05-27T04:53:23.357Z,12.9
2017-05-27T04:54:30.836Z,12.9
2017-05-27T04:55:38.610Z,12.9
2017-05-27T04:56:46.089Z,12.9
2017-05-27T04:57:53.569Z,13
2017-05-27T04:59:00.716Z,13
2017-05-27T05:00:07.862Z,13
2017-05-27T05:01:15.649Z,13
2017-05-27T05:02:23.140Z,13
2017-05-27T05:03:30.621Z,13.1
2017-05-27T05:04:38.101Z,13.1
2017-05-27T05:05:45.578Z,13.1
2017-05-27T05:06:53.365Z,13.1
2017-05-27T05:08:00.848Z,13.2
2017-05-27T05:09:08.002Z,13.2
2017-05-27T05:10:15.482Z,13.3
2017-05-27T05:11:22.966Z,13.3
2017-05-27T05:12:30.466Z,13.3
2017-05-27T05:13:37.947Z,13.4
2017-05-27T05:14:45.426Z,13.4
2017-05-27T05:15:52.906Z,13.5
2017-05-27T05:17:00.388Z,13.5
2017-05-27T05:18:07.893Z,13.6
2017-05-27T05:19:15.046Z,13.7
2017-05-27T05:20:22.524Z,13.7
2017-05-27T05:21:30.240Z,13.7
2017-05-27T05:22:37.714Z,13.8
2017-05-27T05:23:45.493Z,13.9
2017-05-27T05:24:52.668Z,13.9
2017-05-27T05:26:00.150Z,14
2017-05-27T05:27:07.627Z,14.1
2017-05-27T05:28:15.109Z,14.2
2017-05-27T05:29:22.888Z,14.2
2017-05-27T05:30:30.370Z,14.3
2017-05-27T05:31:37.521Z,14.5
2017-05-27T05:32:45.003Z,14.6
2017-05-27T05:33:52.484Z,14.6
2017-05-27T05:35:00.266Z,14.7
2017-05-27T05:36:07.743Z,14.8
2017-05-27T05:37:15.236Z,14.9
2017-05-27T05:38:22.720Z,15.1
2017-05-27T05:39:30.202Z,15.2
2017-05-27T05:40:37.984Z,15.3
2017-05-27T05:41:45.465Z,15.4
2017-05-27T05:42:52.612Z,15.6
2017-05-27T05:44:00.095Z,15.7
2017-05-27T05:45:07.581Z,15.9
2017-05-27T05:46:15.413Z,16
2017-05-27T05:47:22.896Z,16.1
2017-05-27T05:48:30.430Z,16.3
2017-05-27T05:49:37.911Z,16.4
2017-05-27T05:50:45.397Z,16.6
2017-05-27T05:51:52.838Z,16.8
2017-05-27T05:53:00.318Z,16.8
2017-05-27T05:54:07.466Z,17.1
2017-05-27T05:55:14.633Z,17.3
2017-05-27T05:56:22.117Z,17.5
2017-05-27T05:57:29.949Z,17.7
2017-05-27T05:58:37.434Z,17.9
2017-05-27T05:59:44.914Z,18
2017-05-27T06:00:52.395Z,18.1
2017-05-27T06:01:59.875Z,18.3
2017-05-27T06:03:07.711Z,18.3
2017-05-27T06:04:15.192Z,18.4
2017-05-27T06:05:22.673Z,18.6
2017-05-27T06:06:30.151Z,18.8
2017-05-27T06:07:37.306Z,18.9
2017-05-27T06:08:45.140Z,19
2017-05-27T06:09:52.629Z,19.2
2017-05-27T06:10:59.782Z,19.3
2017-05-27T06:12:07.272Z,19.4
2017-05-27T06:13:14.752Z,19.5
2017-05-27T06:14:22.588Z,19.6
2017-05-27T06:15:44.651Z,19.7
2017-05-27T06:16:52.134Z,19.7
2017-05-27T06:17:59.619Z,19.9
2017-05-27T06:19:06.450Z,20
2017-05-27T06:20:14.292Z,20.1
2017-05-27T06:21:21.779Z,20.2
2017-05-27T06:22:29.263Z,20.3
2017-05-27T06:23:36.744Z,20.4
2017-05-27T06:24:44.226Z,20.4
2017-05-27T06:25:52.003Z,20.5
2017-05-27T06:26:59.487Z,20.7
2017-05-27T06:28:06.975Z,20.9
2017-05-27T06:29:14.462Z,21
2017-05-27T06:30:21.945Z,21
2017-05-27T06:31:29.410Z,21.2
2017-05-27T06:32:36.906Z,21.2
2017-05-27T06:33:44.395Z,21.4
2017-05-27T06:34:51.551Z,21.5
2017-05-27T06:35:58.714Z,21.5
2017-05-27T06:37:06.551Z,21.7
2017-05-27T06:38:14.034Z,21.7
2017-05-27T06:39:21.517Z,21.8
2017-05-27T06:40:30.425Z,21.8
2017-05-27T06:41:37.906Z,21.8
2017-05-27T06:42:45.686Z,21.7
2017-05-27T06:43:52.841Z,21.8
2017-05-27T06:44:59.994Z,21.7
2017-05-27T06:46:07.483Z,21.8
2017-05-27T06:47:14.972Z,21.9
2017-05-27T06:48:22.825Z,22
2017-05-27T06:49:30.308Z,22
2017-05-27T06:50:37.794Z,22.1
2017-05-27T06:51:45.280Z,22.2
2017-05-27T06:52:52.765Z,22.3
2017-05-27T06:54:00.555Z,22.5
2017-05-27T06:55:08.041Z,22.4
2017-05-27T06:56:15.527Z,22.4
2017-05-27T06:57:23.008Z,22.4
2017-05-27T06:58:30.170Z,22.4
2017-05-27T06:59:37.960Z,22.4
2017-05-27T07:00:45.446Z,22.5
2017-05-27T07:01:53.164Z,22.7
2017-05-27T07:03:00.639Z,22.7
2017-05-27T07:04:08.125Z,22.9
2017-05-27T07:05:15.961Z,23
2017-05-27T07:06:23.450Z,23
2017-05-27T07:07:30.933Z,23.1
2017-05-27T07:08:38.085Z,23.2
2017-05-27T07:09:45.569Z,23.3
2017-05-27T07:10:52.745Z,23.4
2017-05-27T07:12:00.235Z,23.3
2017-05-27T07:13:07.718Z,23.4
2017-05-27T07:14:14.872Z,23.5
2017-05-27T07:15:22.363Z,23.5
2017-05-27T07:16:30.149Z,23.5
2017-05-27T07:17:37.635Z,23.5
2017-05-27T07:18:45.120Z,23.6
2017-05-27T07:19:52.607Z,23.8
2017-05-27T07:21:00.097Z,23.7
2017-05-27T07:22:07.933Z,23.7
2017-05-27T07:23:15.428Z,23.8
2017-05-27T07:24:22.922Z,23.9
2017-05-27T07:25:30.415Z,23.8
2017-05-27T07:26:37.903Z,23.9
2017-05-27T07:27:45.742Z,24
2017-05-27T07:28:53.232Z,24.2
2017-05-27T07:30:00.716Z,24.4
2017-05-27T07:31:07.878Z,24.3
2017-05-27T07:32:15.369Z,24.2
2017-05-27T07:33:23.156Z,24.1
2017-05-27T07:34:30.642Z,24
2017-05-27T07:35:38.128Z,24
2017-05-27T07:36:45.615Z,24.1
2017-05-27T07:37:53.107Z,24.1
2017-05-27T07:39:00.900Z,24.3
2017-05-27T07:40:08.387Z,24.3
2017-05-27T07:41:15.875Z,24.4
2017-05-27T07:42:23.042Z,24.5
2017-05-27T07:43:30.530Z,24.4
2017-05-27T07:44:38.368Z,24.4
2017-05-27T07:45:45.856Z,24.5
2017-05-27T07:46:53.018Z,24.5
2017-05-27T07:48:00.507Z,24.7
2017-05-27T07:49:07.659Z,24.6
2017-05-27T07:50:15.512Z,24.8
2017-05-27T07:51:22.997Z,25
2017-05-27T07:52:30.485Z,24.8
2017-05-27T07:53:37.974Z,24.8
2017-05-27T07:54:45.467Z,24.7
2017-05-27T07:55:53.363Z,24.7
2017-05-27T07:57:00.848Z,24.9
2017-05-27T07:58:08.011Z,25.2
2017-05-27T07:59:15.172Z,25.3
2017-05-27T08:00:22.663Z,25.4
2017-05-27T08:01:30.500Z,25.5
2017-05-27T08:02:38.041Z,25.4
2017-05-27T08:03:45.530Z,25.5
2017-05-27T08:04:53.017Z,25.5
2017-05-27T08:06:00.173Z,25.5
2017-05-27T08:07:07.971Z,25.6
2017-05-27T08:08:15.456Z,25.3
2017-05-27T08:09:22.950Z,25.4
2017-05-27T08:10:30.442Z,25.6
2017-05-27T08:11:37.928Z,25.6
2017-05-27T08:12:45.783Z,25.5
2017-05-27T08:13:53.282Z,25.4
2017-05-27T08:15:00.768Z,25
2017-05-27T08:16:07.933Z,25.2
2017-05-27T08:17:15.427Z,25.5
2017-05-27T08:18:22.887Z,25.4
2017-05-27T08:19:30.378Z,25.4
2017-05-27T08:20:37.872Z,25.7
2017-05-27T08:21:45.366Z,25.6
2017-05-27T08:22:52.865Z,25.7
2017-05-27T08:24:00.808Z,25.7
2017-05-27T08:25:08.293Z,25.7
2017-05-27T08:26:15.779Z,25.5
2017-05-27T08:27:23.676Z,25.6
2017-05-27T08:28:30.835Z,26
2017-05-27T08:29:38.294Z,26
2017-05-27T08:30:45.784Z,26
2017-05-27T08:31:53.276Z,26.2
2017-05-27T08:33:00.780Z,26
2017-05-27T08:34:08.267Z,26
2017-05-27T08:35:16.056Z,26.2
2017-05-27T08:36:23.552Z,26.7
2017-05-27T08:37:31.042Z,26.9
2017-05-27T08:38:38.210Z,27
2017-05-27T08:39:45.701Z,27.1
2017-05-27T08:40:53.493Z,27.2
2017-05-27T08:42:00.978Z,27.2
2017-05-27T08:43:08.136Z,27.3
2017-05-27T08:44:15.295Z,27.2
2017-05-27T08:45:22.798Z,26.8
2017-05-27T08:46:30.594Z,26.8
2017-05-27T08:47:37.759Z,26.9
2017-05-27T08:48:45.254Z,26.9
2017-05-27T08:49:52.740Z,26.9
2017-05-27T08:51:00.235Z,27.1
2017-05-27T08:52:08.029Z,27.3
2017-05-27T08:53:15.515Z,27.1
2017-05-27T08:54:23.007Z,26.9
2017-05-27T08:55:30.174Z,27.2
2017-05-27T08:56:37.663Z,27.3
2017-05-27T08:57:45.449Z,27.5
2017-05-27T08:58:52.941Z,27.7
2017-05-27T09:00:00.434Z,27.8
2017-05-27T09:01:07.922Z,27.6
2017-05-27T09:02:15.411Z,27.5
2017-05-27T09:03:23.460Z,27.4
2017-05-27T09:04:30.955Z,27.4
2017-05-27T09:05:38.444Z,27.3
2017-05-27T09:06:45.936Z,27.4
2017-05-27T09:07:53.420Z,27.8
2017-05-27T09:09:01.205Z,28.1
2017-05-27T09:10:08.372Z,27.9
2017-05-27T09:11:15.532Z,27.8
2017-05-27T09:12:22.698Z,28
2017-05-27T09:13:30.189Z,27.9
2017-05-27T09:14:37.981Z,27.9
2017-05-27T09:15:45.471Z,27.9
2017-05-27T09:16:52.962Z,28
2017-05-27T09:18:00.453Z,28.1
2017-05-27T09:19:07.942Z,27.8
2017-05-27T09:20:15.731Z,27.4
2017-05-27T09:21:23.222Z,27.5
2017-05-27T09:22:30.731Z,27.6
2017-05-27T09:23:38.220Z,27.8
2017-05-27T09:24:45.388Z,28
2017-05-27T09:25:53.176Z,28.4
2017-05-27T09:27:00.670Z,28.7
2017-05-27T09:28:08.161Z,28.9
2017-05-27T09:29:15.652Z,28.6
2017-05-27T09:30:22.818Z,28.1
2017-05-27T09:31:30.608Z,28
2017-05-27T09:32:38.096Z,28.3
2017-05-27T09:33:45.594Z,28.6
2017-05-27T09:34:53.083Z,28.9
2017-05-27T09:36:00.241Z,28.8
2017-05-27T09:37:07.380Z,28.7
2017-05-27T09:38:14.871Z,28.5
2017-05-27T09:39:22.363Z,28.5
2017-05-27T09:40:29.855Z,28.7
2017-05-27T09:41:37.347Z,28.8
2017-05-27T09:42:45.137Z,29.1
2017-05-27T09:43:52.630Z,28.7
2017-05-27T09:45:00.119Z,28.4
2017-05-27T09:46:07.607Z,28.4
2017-05-27T09:47:15.100Z,28.6
2017-05-27T09:48:22.944Z,28.5
2017-05-27T09:49:30.445Z,28.9
2017-05-27T09:50:37.931Z,29.3
2017-05-27T09:51:45.421Z,29.6
2017-05-27T09:52:52.586Z,29.6
2017-05-27T09:54:00.428Z,29.8
2017-05-27T09:55:07.591Z,30.2
2017-05-27T09:56:15.084Z,30.3
2017-05-27T09:57:22.603Z,30
2017-05-27T09:58:30.091Z,29.9
2017-05-27T09:59:37.950Z,29.9
2017-05-27T10:00:45.446Z,30.1
2017-05-27T10:01:52.975Z,30.4
2017-05-27T10:03:00.467Z,30.7
2017-05-27T10:04:07.961Z,30.7
2017-05-27T10:05:15.756Z,30.7
2017-05-27T10:06:23.252Z,30.6
2017-05-27T10:07:30.740Z,30.8
2017-05-27T10:08:38.232Z,30.9
2017-05-27T10:09:45.726Z,30.8
2017-05-27T10:10:53.567Z,30.3
2017-05-27T10:12:01.058Z,30.1
2017-05-27T10:13:08.217Z,30.1
2017-05-27T10:14:15.710Z,29.8
2017-05-27T10:15:23.215Z,30
2017-05-27T10:16:31.008Z,30.3
2017-05-27T10:17:38.504Z,30.3
2017-05-27T10:18:46.001Z,30.3
2017-05-27T10:19:53.487Z,30.6
2017-05-27T10:21:00.980Z,30.6
2017-05-27T10:22:08.773Z,30.7
2017-05-27T10:23:16.260Z,30.4
2017-05-27T10:24:23.758Z,30.6
2017-05-27T10:25:31.251Z,31
2017-05-27T10:26:38.743Z,30.8
2017-05-27T10:27:46.533Z,30.7
2017-05-27T10:28:53.698Z,30.4
2017-05-27T10:30:01.190Z,30.2
2017-05-27T10:31:08.682Z,30
2017-05-27T10:32:16.174Z,29.5
2017-05-27T10:33:23.687Z,30
2017-05-27T10:34:31.175Z,30.2
2017-05-27T10:35:38.675Z,30.3
2017-05-27T10:36:46.167Z,30.5
2017-05-27T10:37:53.672Z,30.4
2017-05-27T10:39:01.515Z,30.7
2017-05-27T10:40:09.006Z,30.6
2017-05-27T10:41:16.503Z,30.6
2017-05-27T10:42:23.993Z,30.3
2017-05-27T10:43:31.488Z,30.4
2017-05-27T10:44:39.287Z,30.5
2017-05-27T10:45:46.784Z,30.5
2017-05-27T10:46:53.630Z,30.4
2017-05-27T10:48:01.118Z,29.9
2017-05-27T10:49:08.609Z,30
2017-05-27T10:50:16.401Z,30.2
2017-05-27T10:51:23.890Z,30.4
2017-05-27T10:52:31.382Z,30.7
2017-05-27T10:53:38.539Z,31
2017-05-27T10:54:46.038Z,31.2
2017-05-27T10:55:53.885Z,31.1
2017-05-27T10:57:01.378Z,30.9
2017-05-27T10:58:08.875Z,30.8
2017-05-27T10:59:16.371Z,30.9
2017-05-27T11:00:23.860Z,31.1
2017-05-27T11:01:31.711Z,31.2
2017-05-27T11:02:39.206Z,31.3
2017-05-27T11:03:46.370Z,31.1
2017-05-27T11:04:53.864Z,30.8
2017-05-27T11:06:01.356Z,30.9
2017-05-27T11:07:09.201Z,31.1
2017-05-27T11:08:16.695Z,31.3
2017-05-27T11:09:24.188Z,31.4
2017-05-27T11:10:31.690Z,31.5
2017-05-27T11:11:39.185Z,31.2
2017-05-27T11:12:47.035Z,31.3
2017-05-27T11:13:54.198Z,31.5
2017-05-27T11:15:01.689Z,31.9
2017-05-27T11:16:09.188Z,32.3
2017-05-27T11:17:16.682Z,32.5
2017-05-27T11:18:24.149Z,32.5
2017-05-27T11:19:31.646Z,32.4
2017-05-27T11:20:39.142Z,32.1
2017-05-27T11:21:46.634Z,31.8
2017-05-27T11:22:54.128Z,31.6
2017-05-27T11:24:01.973Z,31
2017-05-27T11:25:09.473Z,30.7
2017-05-27T11:26:16.962Z,30.7
2017-05-27T11:27:24.454Z,30.7
2017-05-27T11:28:31.949Z,30.9
2017-05-27T11:29:39.741Z,31.3
2017-05-27T11:30:46.900Z,31.5
2017-05-27T11:31:54.397Z,31.3
2017-05-27T11:33:01.896Z,31.2
2017-05-27T11:34:09.391Z,31.5
2017-05-27T11:35:17.235Z,31.5
2017-05-27T11:36:24.728Z,31.9
2017-05-27T11:37:31.889Z,32.2
2017-05-27T11:38:39.385Z,32
2017-05-27T11:39:46.882Z,32
2017-05-27T11:40:54.726Z,32
2017-05-27T11:42:02.217Z,32.1
2017-05-27T11:43:09.050Z,32.5
2017-05-27T11:44:16.547Z,32.5
2017-05-27T11:45:23.720Z,32
2017-05-27T11:46:31.240Z,32
2017-05-27T11:47:38.748Z,31.9
2017-05-27T11:48:46.240Z,31.8
2017-05-27T11:49:53.731Z,32
2017-05-27T11:51:01.227Z,31.8
2017-05-27T11:52:09.074Z,31.1
2017-05-27T11:53:16.240Z,30.6
2017-05-27T11:54:23.743Z,30.5
2017-05-27T11:55:31.238Z,30.8
2017-05-27T11:56:38.728Z,31.2
2017-05-27T11:57:46.578Z,31.6
2017-05-27T11:58:54.071Z,31.7
2017-05-27T12:00:01.566Z,31.9
2017-05-27T12:01:09.063Z,32
2017-05-27T12:02:16.560Z,32
2017-05-27T12:03:24.406Z,32.1
2017-05-27T12:04:31.898Z,32.2
2017-05-27T12:05:39.392Z,32.2
2017-05-27T12:06:46.882Z,32.3
2017-05-27T12:07:54.381Z,32.2
2017-05-27T12:09:02.222Z,32
2017-05-27T12:10:09.731Z,31.7
2017-05-27T12:11:17.235Z,32.1
2017-05-27T12:12:24.728Z,32.2
2017-05-27T12:13:32.224Z,32.3
2017-05-27T12:14:40.015Z,32.3
2017-05-27T12:15:47.189Z,32.3
2017-05-27T12:16:54.682Z,32.5
2017-05-27T12:18:02.174Z,32.6
2017-05-27T12:19:09.671Z,32.7
2017-05-27T12:20:17.515Z,32.5
2017-05-27T12:21:25.009Z,32.3
2017-05-27T12:22:32.502Z,32.3
2017-05-27T12:23:40.001Z,32.5
2017-05-27T12:24:47.503Z,32.4
2017-05-27T12:25:55.350Z,32.1
2017-05-27T12:27:02.846Z,32.1
2017-05-27T12:28:10.214Z,32.4
2017-05-27T12:29:17.707Z,32.4
2017-05-27T12:30:25.200Z,32.4
2017-05-27T12:31:32.719Z,32.3
2017-05-27T12:32:40.217Z,32.4
2017-05-27T12:33:47.713Z,32.4
2017-05-27T12:34:55.207Z,32.6
2017-05-27T12:36:02.701Z,32.7
2017-05-27T12:37:10.544Z,32.4
2017-05-27T12:38:18.035Z,32.5
2017-05-27T12:39:25.532Z,32.4
2017-05-27T12:40:33.025Z,32.7
2017-05-27T12:41:40.520Z,33
2017-05-27T12:42:48.362Z,33.1
2017-05-27T12:43:55.853Z,33.2
2017-05-27T12:45:03.345Z,33.1
2017-05-27T12:46:10.843Z,33.3
2017-05-27T12:47:18.335Z,33.5
2017-05-27T12:48:26.130Z,33.6
2017-05-27T12:49:33.627Z,33.9
2017-05-27T12:50:41.131Z,33.3
2017-05-27T12:51:48.621Z,32.5
2017-05-27T12:52:56.120Z,32.3
2017-05-27T12:54:03.992Z,32.2
2017-05-27T12:55:11.484Z,32.2
2017-05-27T12:56:18.979Z,32.4
2017-05-27T12:57:26.138Z,32.2
2017-05-27T12:58:33.632Z,32.2
2017-05-27T12:59:41.476Z,32.3
2017-05-27T13:00:48.660Z,32.6
2017-05-27T13:01:56.189Z,32.6
2017-05-27T13:03:03.679Z,32.2
2017-05-27T13:04:10.844Z,32.2
2017-05-27T13:05:18.307Z,32.3
2017-05-27T13:06:25.798Z,32.6
2017-05-27T13:07:33.288Z,32.5
2017-05-27T13:08:40.792Z,32.4
2017-05-27T13:09:47.952Z,32.3
2017-05-27T13:10:55.475Z,32.4
2017-05-27T13:12:02.968Z,32.8
2017-05-27T13:13:10.152Z,33.1
2017-05-27T13:14:17.327Z,33.1
2017-05-27T13:15:24.496Z,33.3
2017-05-27T13:16:32.341Z,33.2
2017-05-27T13:17:39.839Z,33.1
2017-05-27T13:18:47.336Z,33.3
2017-05-27T13:19:54.834Z,33.5
2017-05-27T13:21:02.328Z,33.6
2017-05-27T13:22:10.168Z,33.8
2017-05-27T13:23:17.670Z,33.8
2017-05-27T13:24:25.164Z,33.8
2017-05-27T13:25:32.659Z,33.5
2017-05-27T13:26:40.157Z,33.4
2017-05-27T13:27:47.624Z,32.8
2017-05-27T13:28:55.122Z,32.7
2017-05-27T13:30:02.621Z,32.7
2017-05-27T13:31:10.120Z,32.7
2017-05-27T13:32:17.624Z,32.7
2017-05-27T13:33:25.419Z,33
2017-05-27T13:34:32.918Z,33.3
2017-05-27T13:35:40.409Z,33.4
2017-05-27T13:36:47.901Z,33.5
2017-05-27T13:37:55.392Z,33.5
2017-05-27T13:39:02.859Z,33.5
2017-05-27T13:40:10.022Z,33.5
2017-05-27T13:41:17.184Z,33.3
2017-05-27T13:42:24.677Z,33.3
2017-05-27T13:43:31.842Z,33.4
2017-05-27T13:44:39.687Z,33.3
2017-05-27T13:45:47.185Z,32.6
2017-05-27T13:46:54.350Z,32.9
2017-05-27T13:48:01.850Z,33.5
2017-05-27T13:49:09.348Z,33.9
2017-05-27T13:50:17.191Z,34.3
2017-05-27T13:51:24.679Z,34.4
2017-05-27T13:52:32.176Z,34.3
2017-05-27T13:53:39.667Z,34
2017-05-27T13:54:47.161Z,34
2017-05-27T13:55:55.009Z,34
2017-05-27T13:57:02.179Z,33.4
2017-05-27T13:58:09.675Z,33.2
2017-05-27T13:59:17.171Z,33.3
2017-05-27T14:00:24.666Z,32.9
2017-05-27T14:01:32.461Z,32.5
2017-05-27T14:02:39.959Z,32.8
2017-05-27T14:03:47.468Z,33.4
2017-05-27T14:04:54.964Z,33.3
2017-05-27T14:06:02.459Z,33.1
2017-05-27T14:07:10.312Z,32.6
2017-05-27T14:08:17.485Z,32.4
2017-05-27T14:09:24.982Z,32.6
2017-05-27T14:10:32.478Z,32.7
2017-05-27T14:11:39.974Z,32.9
2017-05-27T14:12:47.769Z,33.2
2017-05-27T14:13:55.266Z,33.3
2017-05-27T14:15:02.761Z,33.5
2017-05-27T14:16:24.839Z,33.6
2017-05-27T14:17:32.004Z,33.5
2017-05-27T14:18:39.521Z,33.4
2017-05-27T14:19:47.020Z,33.6
2017-05-27T14:20:54.517Z,33.6
2017-05-27T14:22:02.008Z,33.8
2017-05-27T14:23:09.501Z,33.3
2017-05-27T14:24:17.392Z,33.3
2017-05-27T14:25:24.884Z,33.1
2017-05-27T14:26:32.379Z,33.4
2017-05-27T14:27:39.873Z,33
2017-05-27T14:28:47.372Z,33.2
2017-05-27T14:29:55.221Z,33.7
2017-05-27T14:31:02.725Z,33.5
2017-05-27T14:32:10.221Z,33.3
2017-05-27T14:33:17.385Z,33.3
2017-05-27T14:34:24.879Z,33.6
2017-05-27T14:35:32.726Z,33.9
2017-05-27T14:36:40.226Z,33.9
2017-05-27T14:37:47.721Z,33.8
2017-05-27T14:38:55.218Z,33.8
2017-05-27T14:40:02.718Z,34.1
2017-05-27T14:41:10.569Z,34.4
2017-05-27T14:42:18.074Z,34.6
2017-05-27T14:43:25.575Z,34.4
2017-05-27T14:44:32.756Z,34
2017-05-27T14:45:40.255Z,33.2
2017-05-27T14:46:48.101Z,33
2017-05-27T14:47:55.595Z,32.7
2017-05-27T14:49:03.093Z,32.7
2017-05-27T14:50:10.591Z,33
2017-05-27T14:51:18.084Z,33.5
2017-05-27T14:52:25.604Z,33.9
2017-05-27T14:53:33.100Z,34.1
2017-05-27T14:54:40.593Z,34.1
2017-05-27T14:55:48.089Z,34.1
2017-05-27T14:56:55.592Z,33.8
2017-05-27T14:58:18.027Z,33.6
2017-05-27T14:59:25.521Z,33.3
2017-05-27T15:00:33.018Z,33.4
2017-05-27T15:01:40.512Z,33.8
2017-05-27T15:02:48.013Z,34.1
2017-05-27T15:03:55.814Z,33.8
2017-05-27T15:05:02.982Z,33.5